Time;durP1;ratioP1;P1;durP2;ratioP2;P2;SDS_P1;SDS_P2;PMS_P1;PMS_P2;Temp;Humidity;BMP_temperature;BMP_pressure;BME280_temperature;BME280_humidity;BME280_pressure;Samples;Min_cycle;Max_cycle;Signal;HPM_P1;HPM_P2
2021/05/09 00:00:35;;;;;;;3.83;3.20;;;12.30;52.40;;;13.96;100.00;100104.50;5028548;28;20284;-59
2021/05/09 00:03:46;;;;;;;2.90;2.70;;;12.30;52.50;;;14.03;100.00;100105.41;5008803;28;20978;-61
2021/05/09 00:11:00;;;;;;;5.17;3.40;;;12.40;52.40;;;14.06;100.00;100109.59;4984834;28;20217;-61
2021/05/09 00:14:13;;;;;;;3.47;2.93;;;12.40;52.40;;;14.11;100.00;100109.84;5027612;28;20567;-60
2021/05/09 00:17:36;;;;;;;2.97;2.70;;;12.40;52.30;;;14.14;100.00;100097.91;5027807;28;20456;-60
2021/05/09 00:20:48;;;;;;;2.77;2.50;;;12.50;52.20;;;14.16;100.00;100102.06;5028361;28;20212;-61
2021/05/09 00:23:59;;;;;;;3.37;3.00;;;12.50;52.00;;;14.23;100.00;100089.53;5028147;28;20561;-61
2021/05/09 00:27:10;;;;;;;4.60;2.80;;;12.50;52.00;;;14.23;100.00;100094.09;5027089;28;20231;-61
2021/05/09 00:30:23;;;;;;;5.20;3.07;;;12.60;52.00;;;14.21;100.00;100093.47;5027365;28;20304;-61
2021/05/09 00:33:49;;;;;;;6.57;3.30;;;12.60;52.00;;;14.19;100.00;100088.25;5027772;28;20343;-61
2021/05/09 00:37:01;;;;;;;3.00;2.70;;;12.60;52.00;;;14.24;100.00;100083.13;5007483;28;20296;-60
2021/05/09 00:40:18;;;;;;;4.30;3.20;;;12.70;52.00;;;14.19;100.00;100079.34;5007293;28;20700;-60
2021/05/09 00:43:29;;;;;;;3.90;3.10;;;12.70;52.10;;;14.23;100.00;100076.09;5007619;28;20544;-61
2021/05/09 00:46:42;;;;;;;3.90;2.80;;;12.60;52.10;;;14.24;100.00;100077.75;5005601;28;20992;-61
2021/05/09 00:49:54;;;;;;;2.77;2.57;;;12.60;52.70;;;14.27;100.00;100079.25;5027789;28;20242;-61
2021/05/09 00:53:06;;;;;;;4.37;2.67;;;12.60;52.10;;;14.22;100.00;100082.47;5027152;28;20708;-62
2021/05/09 00:56:19;;;;;;;3.87;2.93;;;12.60;52.40;;;14.21;100.00;100072.78;5027986;28;20453;-60
2021/05/09 00:59:31;;;;;;;3.40;3.07;;;12.60;52.40;;;14.20;100.00;100075.66;5008899;28;20580;-61
2021/05/09 01:02:45;;;;;;;4.90;2.73;;;12.60;52.60;;;14.33;100.00;100071.28;5008316;28;20792;-61
2021/05/09 01:05:57;;;;;;;4.43;2.63;;;12.70;52.30;;;14.34;100.00;100072.09;5008169;28;20321;-61
2021/05/09 01:09:08;;;;;;;3.07;2.50;;;12.70;52.40;;;14.33;100.00;100071.28;5029630;28;20455;-62
2021/05/09 01:12:20;;;;;;;3.20;2.90;;;12.70;52.60;;;14.30;100.00;100073.50;5011682;28;20789;-61
2021/05/09 01:15:34;;;;;;;3.33;3.00;;;12.80;52.50;;;14.32;100.00;100066.06;5011844;28;20385;-61
2021/05/09 01:18:46;;;;;;;3.10;2.80;;;12.80;52.70;;;14.31;100.00;100067.94;5030458;28;20328;-61
2021/05/09 01:21:59;;;;;;;3.37;3.07;;;12.80;52.70;;;14.36;100.00;100068.19;5011924;28;20237;-61
2021/05/09 01:25:11;;;;;;;3.57;3.27;;;12.80;52.70;;;14.38;100.00;100065.31;5030417;28;20741;-61
2021/05/09 01:28:24;;;;;;;3.10;2.80;;;12.80;52.90;;;14.38;100.00;100065.31;5030114;28;20221;-61
2021/05/09 01:32:08;;;;;;;3.17;2.57;;;12.80;52.90;;;14.48;100.00;100060.50;5011639;28;20827;-62
2021/05/09 01:39:27;;;;;;;3.10;2.80;;;12.90;52.80;;;14.54;100.00;100048.16;4995022;28;20548;-59
2021/05/09 01:42:41;;;;;;;2.87;2.53;;;12.90;52.90;;;14.52;100.00;100047.50;4951049;28;20678;-61
2021/05/09 01:45:53;;;;;;;3.83;2.50;;;12.90;53.00;;;14.58;100.00;100042.19;5030763;28;20206;-62
2021/05/09 01:49:04;;;;;;;3.63;2.53;;;12.90;52.90;;;14.58;100.00;100044.06;5030456;28;20810;-60
2021/05/09 01:52:35;;;;;;;3.90;2.80;;;12.90;52.90;;;14.56;100.00;100041.56;5011261;28;21082;-62
2021/05/09 01:55:48;;;;;;;3.00;2.63;;;13.00;53.10;;;14.61;100.00;100041.78;5011727;28;20253;-62
2021/05/09 01:59:03;;;;;;;4.63;2.80;;;13.00;53.10;;;14.64;100.00;100040.59;5011594;28;20582;-60
2021/05/09 02:02:21;;;;;;;3.33;2.80;;;13.00;53.10;;;14.53;100.00;100028.47;5011124;28;20499;-61
2021/05/09 02:05:38;;;;;;;2.67;2.40;;;13.00;53.10;;;14.65;100.00;100032.31;5010922;28;20222;-60
2021/05/09 02:08:50;;;;;;;3.40;2.57;;;13.00;53.10;;;14.56;100.00;100033.47;5010991;28;20454;-61
2021/05/09 02:12:08;;;;;;;3.57;2.70;;;13.00;53.30;;;14.55;100.00;100031.81;4991272;28;20801;-61
2021/05/09 02:15:37;;;;;;;4.50;2.60;;;12.90;53.50;;;14.49;100.00;100029.84;5003499;28;20487;-59
2021/05/09 02:22:29;;;;;;;4.53;2.57;;;12.70;53.90;;;14.18;100.00;100021.16;4991528;28;20226;-59
2021/05/09 02:25:40;;;;;;;3.57;2.60;;;12.50;54.20;;;14.13;100.00;100020.88;5009860;28;20214;-58
2021/05/09 02:28:53;;;;;;;3.63;2.90;;;12.50;54.50;;;14.18;100.00;100013.09;4991159;28;20927;-61
2021/05/09 02:32:18;;;;;;;3.90;2.80;;;12.40;54.70;;;14.12;100.00;100011.16;4991999;28;20304;-61
2021/05/09 02:35:30;;;;;;;5.80;2.87;;;12.30;54.90;;;14.06;100.00;100012.75;5009759;28;20571;-61
2021/05/09 02:38:42;;;;;;;4.07;2.40;;;12.20;55.30;;;13.89;100.00;100012.09;4990771;28;20510;-61
2021/05/09 02:41:53;;;;;;;3.23;2.30;;;12.10;55.40;;;13.88;100.00;100013.13;5004744;28;20717;-61
2021/05/09 02:45:05;;;;;;;4.03;3.17;;;12.10;55.70;;;13.82;100.00;100007.66;5029128;28;20588;-61
2021/05/09 02:48:17;;;;;;;4.17;2.97;;;12.00;56.00;;;13.76;100.00;99998.47;5028939;28;20234;-60
2021/05/09 02:51:29;;;;;;;3.00;2.47;;;11.90;56.10;;;13.79;100.00;100003.47;5029242;28;20232;-61
2021/05/09 02:54:41;;;;;;;4.90;2.60;;;11.90;56.40;;;13.85;100.00;99996.50;5010128;28;20209;-61
2021/05/09 02:57:52;;;;;;;3.20;2.53;;;11.80;56.60;;;13.70;100.00;100006.47;5029587;28;20991;-61
2021/05/09 03:01:05;;;;;;;2.83;2.50;;;11.80;56.70;;;13.67;100.00;100002.28;5010220;28;20221;-61
2021/05/09 03:04:36;;;;;;;3.77;2.43;;;11.70;57.00;;;13.64;100.00;100006.16;5008588;28;20344;-61
2021/05/09 03:08:00;;;;;;;3.97;2.33;;;11.70;57.30;;;13.62;100.00;100005.50;4990526;28;20265;-61
2021/05/09 03:11:12;;;;;;;4.87;2.70;;;11.70;57.50;;;13.56;100.00;100003.56;5007051;28;20987;-61
2021/05/09 03:14:25;;;;;;;2.93;2.53;;;11.70;57.70;;;13.62;100.00;100007.34;4989782;28;20285;-63
2021/05/09 03:17:36;;;;;;;2.70;2.50;;;11.60;57.90;;;13.57;100.00;100001.72;5008615;28;20648;-61
2021/05/09 03:20:49;;;;;;;4.20;2.23;;;11.60;58.00;;;13.59;100.00;100007.75;5008669;28;20444;-61
2021/05/09 03:24:00;;;;;;;4.13;2.90;;;11.60;58.10;;;13.57;100.00;100015.16;5023184;28;20229;-60
2021/05/09 03:27:23;;;;;;;3.30;2.73;;;11.60;58.30;;;13.61;100.00;100011.91;5028837;28;20613;-61
2021/05/09 03:30:35;;;;;;;3.63;2.73;;;11.70;58.60;;;13.58;100.00;100008.78;5028783;28;20453;-61
2021/05/09 03:33:46;;;;;;;2.87;2.40;;;11.70;58.50;;;13.59;100.00;100011.28;5028749;28;20564;-61
2021/05/09 03:37:10;;;;;;;4.27;2.50;;;11.70;58.60;;;13.62;100.00;100018.13;5028659;28;20457;-63
2021/05/09 03:40:21;;;;;;;3.77;2.37;;;11.60;58.70;;;13.58;100.00;100022.22;5028112;28;20601;-60
2021/05/09 03:43:33;;;;;;;5.27;2.70;;;11.60;58.80;;;13.63;100.00;100017.09;5028471;28;20579;-60
2021/05/09 03:46:44;;;;;;;3.20;2.50;;;11.60;58.90;;;13.58;100.00;100020.34;5028302;28;20226;-61
2021/05/09 03:50:26;;;;;;;4.30;2.43;;;11.60;59.00;;;13.55;100.00;100020.72;5028141;28;20702;-60
2021/05/09 03:53:39;;;;;;;3.50;2.53;;;11.60;59.10;;;13.62;100.00;100018.13;5020616;28;20372;-60
2021/05/09 03:56:50;;;;;;;4.03;2.67;;;11.70;59.10;;;13.65;100.00;100023.13;5009012;28;20221;-62
2021/05/09 04:00:01;;;;;;;3.07;2.43;;;11.70;59.00;;;13.52;100.00;100020.25;5027841;28;20343;-60
2021/05/09 04:03:36;;;;;;;3.00;2.50;;;11.70;59.10;;;13.53;100.00;100019.22;5027893;28;20553;-61
2021/05/09 04:07:25;;;;;;;3.07;2.63;;;11.70;59.10;;;13.57;100.00;100018.69;5007991;28;20319;-61
2021/05/09 04:10:38;;;;;;;4.00;2.80;;;11.70;59.10;;;13.50;100.00;100022.28;4988062;28;20226;-61
2021/05/09 04:14:00;;;;;;;3.47;2.50;;;11.70;59.20;;;13.52;100.00;100021.06;5007803;28;20971;-60
2021/05/09 04:17:11;;;;;;;3.37;2.60;;;11.70;59.20;;;13.59;100.00;100015.81;5006933;28;20329;-61
2021/05/09 04:20:23;;;;;;;3.50;2.80;;;11.70;59.40;;;13.63;100.00;100009.03;5007772;28;20237;-60
2021/05/09 04:23:49;;;;;;;3.60;2.97;;;11.80;59.50;;;13.71;100.00;100011.66;5007497;28;20218;-61
2021/05/09 04:27:02;;;;;;;4.87;2.80;;;11.80;59.60;;;13.85;100.00;100010.78;5026634;28;20238;-60
2021/05/09 04:30:13;;;;;;;4.03;2.57;;;11.80;59.70;;;13.92;100.00;100005.53;5027746;28;20321;-61
2021/05/09 04:33:26;;;;;;;2.90;2.60;;;11.90;59.80;;;13.88;100.00;100006.91;5027660;28;20674;-61
2021/05/09 04:36:37;;;;;;;2.90;2.43;;;12.00;59.80;;;13.98;100.00;100002.91;5027359;28;20465;-61
2021/05/09 04:39:49;;;;;;;4.43;2.40;;;12.10;59.80;;;14.03;100.00;100013.94;5027896;28;20443;-60
2021/05/09 04:43:25;;;;;;;2.50;2.30;;;12.20;59.60;;;14.13;100.00;100010.13;5024498;28;20472;-60
2021/05/09 04:46:36;;;;;;;4.07;2.47;;;12.20;59.60;;;14.29;100.00;100008.06;4991005;28;20593;-62
2021/05/09 04:49:47;;;;;;;3.30;2.60;;;12.40;60.00;;;14.29;100.00;100005.38;5011901;28;20206;-61
2021/05/09 04:52:59;;;;;;;3.17;2.60;;;12.50;59.30;;;14.31;100.00;100014.09;5018810;28;20232;-62
2021/05/09 04:56:10;;;;;;;3.30;2.53;;;12.50;59.10;;;14.30;100.00;100014.28;5016646;28;20750;-61
2021/05/09 05:03:10;;;;;;;2.30;2.07;;;12.70;58.70;;;14.40;100.00;100016.69;5005581;28;20706;-61
2021/05/09 05:06:22;;;;;;;4.50;2.60;;;12.70;58.80;;;14.49;100.00;100018.25;5017052;28;20606;-62
2021/05/09 05:09:34;;;;;;;2.97;2.63;;;12.80;58.90;;;14.61;100.00;100009.47;5019140;28;20586;-62
2021/05/09 05:12:45;;;;;;;3.70;3.10;;;12.80;58.60;;;14.62;100.00;100002.25;5016680;28;20221;-62
2021/05/09 05:16:10;;;;;;;2.80;2.43;;;13.00;58.60;;;14.95;100.00;99998.03;5018523;28;20894;-62
2021/05/09 05:19:21;;;;;;;2.83;2.43;;;13.00;58.20;;;15.13;100.00;99996.72;5018891;28;20489;-62
2021/05/09 05:22:32;;;;;;;3.57;2.47;;;13.20;58.00;;;15.33;100.00;100000.44;5018867;28;20521;-61
2021/05/09 05:25:44;;;;;;;2.83;2.33;;;13.30;57.90;;;15.27;100.00;100003.88;5023360;28;20945;-61
2021/05/09 05:28:55;;;;;;;2.70;2.40;;;13.50;57.50;;;15.21;100.00;100016.28;5019677;28;20966;-62
2021/05/09 05:32:07;;;;;;;2.70;2.50;;;13.60;57.00;;;15.50;100.00;100019.81;5017013;28;20233;-62
2021/05/09 05:35:18;;;;;;;3.00;2.43;;;13.70;56.60;;;15.75;100.00;100012.97;5012821;28;20547;-62
2021/05/09 05:38:30;;;;;;;4.83;2.67;;;13.80;56.50;;;15.62;100.00;100019.13;5016646;28;20630;-62
2021/05/09 05:41:41;;;;;;;5.03;2.60;;;14.00;56.10;;;15.87;100.00;100018.63;5017259;28;20229;-62
2021/05/09 05:44:52;;;;;;;5.40;2.60;;;14.20;55.30;;;16.13;100.00;100008.81;5011573;28;20317;-62
2021/05/09 05:48:04;;;;;;;3.80;2.77;;;14.40;55.10;;;16.33;100.00;100025.09;5018031;28;20327;-61
2021/05/09 05:51:16;;;;;;;4.10;2.50;;;14.50;54.60;;;16.38;100.00;100027.19;5003770;28;20225;-62
2021/05/09 05:54:28;;;;;;;3.47;2.60;;;14.70;54.10;;;16.71;100.00;100030.84;5020339;28;20484;-62
2021/05/09 05:57:39;;;;;;;3.85;2.67;;;14.90;53.80;;;16.80;100.00;100023.41;5018726;28;20695;-61
2021/05/09 06:00:50;;;;;;;2.97;2.55;;;15.20;53.30;;;16.52;100.00;100021.66;5013089;28;20694;-62
2021/05/09 06:04:02;;;;;;;3.57;2.83;;;15.30;52.00;;;16.72;100.00;100027.13;5018557;28;20253;-62
2021/05/09 06:10:37;;;;;;;6.72;3.10;;;15.60;51.60;;;16.86;100.00;100031.53;5013863;28;20713;-61
2021/05/09 06:13:48;;;;;;;2.95;2.53;;;15.70;51.40;;;16.92;100.00;100031.75;5021511;28;20629;-62
2021/05/09 06:16:59;;;;;;;4.63;2.92;;;15.70;51.40;;;16.97;100.00;100032.78;5019042;28;20248;-61
2021/05/09 06:20:12;;;;;;;4.07;2.75;;;15.90;51.10;;;17.19;100.00;100036.97;5020859;28;20921;-62
2021/05/09 06:23:36;;;;;;;4.22;2.72;;;16.00;51.50;;;17.21;100.00;100034.06;4995150;28;20532;-63
2021/05/09 06:27:27;;;;;;;3.95;2.88;;;16.10;50.70;;;17.44;100.00;100028.22;5016970;28;20255;-62
2021/05/09 06:30:49;;;;;;;3.00;2.60;;;16.20;50.40;;;17.56;100.00;100031.97;4976827;28;20441;-61
2021/05/09 06:34:00;;;;;;;4.30;2.85;;;16.30;50.10;;;17.66;100.00;100031.59;4972628;28;21042;-62
2021/05/09 06:37:12;;;;;;;2.70;2.42;;;16.40;49.80;;;17.79;100.00;100032.41;5018751;28;20276;-62
2021/05/09 06:40:24;;;;;;;3.80;2.85;;;16.60;49.60;;;17.93;100.00;100030.47;5015795;28;20457;-61
2021/05/09 06:43:44;;;;;;;2.90;2.60;;;16.80;49.30;;;17.87;100.00;100032.16;5019454;28;20674;-62
2021/05/09 06:50:14;;;;;;;4.22;2.70;;;17.00;49.00;;;17.95;100.00;100026.53;5021578;28;20236;-62
2021/05/09 06:53:27;;;;;;;3.13;2.83;;;17.10;48.50;;;18.47;99.61;100021.13;5020842;28;20507;-61
2021/05/09 07:00:01;;;;;;;3.25;2.47;;;17.40;48.00;;;19.14;95.99;100019.72;5016454;28;20555;-62
2021/05/09 07:03:12;;;;;;;3.90;2.40;;;17.60;48.30;;;19.26;95.33;100018.78;5012652;28;20233;-61
2021/05/09 07:10:01;;;;;;;5.28;2.58;;;18.20;47.10;;;18.83;92.99;100021.38;5011554;28;20583;-64
2021/05/09 07:13:12;;;;;;;3.08;2.78;;;18.50;45.60;;;18.99;91.40;100014.59;5020470;28;20685;-63
2021/05/09 07:16:25;;;;;;;3.70;2.35;;;18.60;45.60;;;19.11;93.47;100020.16;5017223;28;20564;-63
2021/05/09 07:19:36;;;;;;;3.05;2.72;;;18.70;45.20;;;18.99;93.09;100014.59;5021289;28;20404;-63
2021/05/09 07:22:52;;;;;;;2.60;2.40;;;18.70;45.10;;;19.23;93.62;100018.38;5020303;28;20559;-62
2021/05/09 07:26:05;;;;;;;2.60;2.35;;;18.80;45.00;;;19.30;90.70;100017.25;5019936;28;20620;-63
2021/05/09 07:29:16;;;;;;;3.83;2.45;;;19.00;44.60;;;19.40;90.62;100008.66;5017997;28;20221;-63
2021/05/09 07:32:27;;;;;;;2.40;2.13;;;19.10;44.50;;;19.83;91.89;100011.38;5013206;28;20764;-63
2021/05/09 07:35:50;;;;;;;3.30;2.25;;;19.20;44.60;;;20.06;87.92;100000.66;5016736;28;20233;-63
2021/05/09 07:39:02;;;;;;;2.10;1.90;;;19.40;44.90;;;20.59;87.28;100002.75;5020003;28;20822;-63
2021/05/09 07:42:14;;;;;;;3.00;2.60;;;19.60;44.70;;;20.30;87.44;100008.94;5017389;28;20712;-63
2021/05/09 07:49:24;;;;;;;4.13;2.42;;;20.10;43.30;;;20.53;84.93;99989.25;4984076;28;20233;-63
2021/05/09 07:52:44;;;;;;;3.47;2.10;;;20.20;42.90;;;20.71;82.33;99981.88;5018749;28;20412;-64
2021/05/09 07:55:55;;;;;;;4.00;2.22;;;20.30;42.80;;;21.37;82.60;99988.19;5019564;28;20218;-61
2021/05/09 07:59:08;;;;;;;2.33;2.00;;;20.50;43.00;;;21.85;78.12;99980.59;5020274;28;20884;-61
2021/05/09 08:02:34;;;;;;;3.58;1.70;;;20.80;43.10;;;21.35;77.52;99976.72;5016487;28;20650;-61
2021/05/09 08:09:24;;;;;;;2.42;1.70;;;21.30;41.70;;;21.43;80.04;99974.47;5018294;28;20221;-61
2021/05/09 08:12:35;;;;;;;2.63;1.63;;;21.50;41.00;;;21.86;77.47;99976.00;5011137;28;20338;-61
2021/05/09 08:19:28;;;;;;;1.90;1.63;;;21.70;40.80;;;21.86;79.10;99960.47;5018468;28;20218;-63
2021/05/09 08:22:45;;;;;;;2.28;1.63;;;21.80;40.30;;;21.62;77.87;99949.84;5022933;28;20229;-64
2021/05/09 08:26:08;;;;;;;3.80;1.80;;;21.80;39.90;;;21.66;76.41;99946.38;5016270;28;20891;-64
2021/05/09 08:29:19;;;;;;;3.20;1.90;;;21.80;40.10;;;22.19;75.28;99939.91;5024233;28;20470;-64
2021/05/09 08:32:32;;;;;;;2.45;1.88;;;21.90;40.40;;;22.85;72.88;99949.38;4122985;28;10000810;-62
2021/05/09 08:35:44;;;;;;;1.98;1.60;;;22.10;40.30;;;22.20;71.66;99952.47;4983682;28;20687;-62
2021/05/09 08:38:55;;;;;;;3.13;1.80;;;22.30;39.30;;;22.77;73.47;99933.38;4995617;28;20802;-63
2021/05/09 08:42:07;;;;;;;2.50;1.70;;;22.40;39.70;;;22.56;74.05;99952.09;5003724;28;20230;-62
2021/05/09 08:48:42;;;;;;;2.17;1.85;;;22.60;39.10;;;23.27;73.46;99939.69;5000969;28;20222;-62
2021/05/09 08:55:21;;;;;;;3.35;1.75;;;22.90;39.10;;;23.50;67.70;99941.41;5003051;28;20317;-62
2021/05/09 08:59:02;;;;;;;1.58;1.48;;;23.10;38.70;;;23.04;69.23;99933.56;4984816;28;21037;-63
2021/05/09 09:02:13;;;;;;;1.88;1.58;;;23.20;37.70;;;23.49;67.34;99928.81;4997611;28;20306;-64
2021/05/09 09:09:15;;;;;;;1.85;1.40;;;23.30;37.70;;;23.48;66.79;99926.34;4999928;28;20522;-63
2021/05/09 09:12:38;;;;;;;2.03;1.42;;;23.40;37.60;;;24.32;63.22;99916.00;4978596;28;20883;-62
2021/05/09 09:19:57;;;;;;;1.95;1.60;;;23.60;37.50;;;23.46;64.67;99917.56;4916208;28;20613;-63
2021/05/09 09:27:05;;;;;;;1.88;1.60;;;23.60;37.60;;;24.31;61.58;99900.66;4983094;28;20619;-62
2021/05/09 09:30:27;;;;;;;1.65;1.42;;;23.70;37.40;;;23.92;63.20;99903.47;4987100;28;20528;-63
2021/05/09 09:33:56;;;;;;;2.95;1.73;;;23.80;37.00;;;23.87;66.15;99897.94;4986649;28;20504;-63
2021/05/09 09:37:20;;;;;;;3.05;1.75;;;23.90;37.00;;;24.14;66.71;99899.88;4981303;28;21003;-62
2021/05/09 09:44:07;;;;;;;1.90;1.70;;;24.10;36.80;;;24.14;68.60;99897.16;4981731;28;20231;-62
2021/05/09 09:47:18;;;;;;;1.92;1.40;;;24.30;36.60;;;23.89;64.37;99893.03;4979859;28;20281;-62
2021/05/09 09:50:57;;;;;;;2.70;1.42;;;24.50;36.00;;;23.90;66.07;99882.94;4976349;28;20234;-61
2021/05/09 09:54:09;;;;;;;2.08;1.50;;;24.60;35.70;;;24.15;63.39;99896.06;4967011;28;20428;-62
2021/05/09 09:57:37;;;;;;;1.60;1.30;;;24.60;35.70;;;24.75;59.75;99886.84;4987260;28;20683;-63
2021/05/09 10:00:55;;;;;;;1.45;1.33;;;24.60;35.80;;;24.33;61.66;99885.66;4986846;28;20609;-63
2021/05/09 10:04:07;;;;;;;3.40;1.20;;;24.80;35.30;;;24.88;58.74;99872.72;4986407;28;20808;-62
2021/05/09 10:07:25;;;;;;;2.28;1.35;;;25.00;35.50;;;25.07;57.97;99859.50;4986274;28;20451;-62
2021/05/09 10:10:38;;;;;;;1.88;1.13;;;25.30;35.30;;;25.61;60.21;99851.88;4986562;28;20427;-63
2021/05/09 10:13:52;;;;;;;2.58;1.25;;;25.50;35.10;;;25.57;56.83;99853.50;4986497;28;20265;-63
2021/05/09 10:17:06;;;;;;;2.13;1.20;;;25.80;34.40;;;24.87;58.12;99852.75;4987200;28;20265;-63
2021/05/09 10:20:18;;;;;;;1.45;1.00;;;26.00;33.80;;;25.26;55.56;99855.22;4981829;28;20487;-63
2021/05/09 10:23:31;;;;;;;2.55;1.35;;;25.90;33.80;;;26.08;54.21;99846.31;4987133;28;21011;-63
2021/05/09 10:27:04;;;;;;;7.03;1.55;;;26.10;34.70;;;25.51;53.38;99843.59;4986995;28;20514;-63
2021/05/09 10:30:30;;;;;;;1.40;1.30;;;26.50;33.30;;;25.93;51.90;99832.56;4981278;28;20313;-63
2021/05/09 10:38:28;;;;;;;2.17;1.60;;;26.90;32.70;;;25.28;54.49;99833.88;4979740;28;20227;-62
2021/05/09 10:41:58;;;;;;;2.05;1.23;;;26.90;31.80;;;25.43;52.90;99823.03;4893740;28;20617;-62
2021/05/09 10:45:22;;;;;;;2.63;1.20;;;26.80;32.00;;;25.81;52.94;99829.22;4977435;28;20609;-63
2021/05/09 10:48:45;;;;;;;1.55;1.20;;;26.70;33.00;;;25.60;53.28;99811.84;4974819;28;20862;-63
2021/05/09 10:51:56;;;;;;;1.85;1.10;;;26.80;32.70;;;26.24;53.60;99817.81;4981044;28;20583;-63
2021/05/09 10:55:09;;;;;;;2.10;1.30;;;26.90;33.00;;;25.85;52.69;99817.44;4984125;28;20411;-63
2021/05/09 10:58:22;;;;;;;2.58;1.13;;;27.00;32.70;;;26.20;51.45;99826.88;4958230;28;20701;-62
2021/05/09 11:01:56;;;;;;;1.10;1.02;;;27.00;32.40;;;26.03;57.44;99819.69;4995541;28;20489;-62
2021/05/09 11:05:13;;;;;;;1.30;1.10;;;27.00;32.30;;;25.65;52.89;99815.47;4215874;28;10001317;-64
2021/05/09 11:08:39;;;;;;;2.05;1.13;;;26.90;31.90;;;25.81;51.33;99815.53;4983783;28;20733;-64
2021/05/09 11:12:28;;;;;;;2.45;1.20;;;27.00;31.80;;;26.60;49.40;99807.72;4981680;28;20441;-64
2021/05/09 11:15:51;;;;;;;2.72;1.40;;;27.10;32.10;;;26.51;52.68;99806.63;4919711;28;20672;-63
2021/05/09 11:19:05;;;;;;;2.10;1.30;;;27.40;32.00;;;26.66;48.27;99803.88;4958621;28;20509;-64
2021/05/09 11:22:17;;;;;;;2.30;1.10;;;27.50;31.60;;;26.75;50.54;99801.38;4977972;28;20493;-63
2021/05/09 11:25:29;;;;;;;1.33;1.23;;;27.50;31.60;;;26.28;50.06;99796.19;4985631;28;20242;-64
2021/05/09 11:32:27;;;;;;;1.55;1.00;;;28.00;31.20;;;27.25;49.68;99781.28;4989115;28;20234;-64
2021/05/09 11:35:45;;;;;;;1.27;1.15;;;28.30;31.50;;;26.52;50.38;99783.56;5008639;28;20503;-63
2021/05/09 11:38:57;;;;;;;2.10;1.20;;;28.50;30.60;;;27.44;51.72;99765.00;4100801;28;10000275;-65
2021/05/09 11:42:16;;;;;;;1.20;1.10;;;28.60;31.20;;;27.96;48.32;99771.88;4997647;28;20878;-64
2021/05/09 11:45:28;;;;;;;2.08;1.33;;;28.70;31.70;;;27.22;47.16;99781.00;4996577;28;20716;-63
2021/05/09 11:48:51;;;;;;;3.45;1.48;;;28.80;31.00;;;26.51;50.39;99776.44;5003047;28;20649;-64
2021/05/09 11:52:14;;;;;;;1.30;1.08;;;28.70;30.10;;;27.36;51.79;99771.06;5003701;28;20229;-64
2021/05/09 11:55:26;;;;;;;1.95;1.02;;;28.50;30.60;;;28.09;46.66;99757.47;5004729;28;20497;-63
2021/05/09 11:58:39;;;;;;;1.52;1.10;;;28.60;31.30;;;28.12;50.11;99755.00;5003530;28;20611;-64
2021/05/09 12:05:27;;;;;;;2.55;1.10;;;29.00;30.50;;;27.53;47.66;99760.56;5004532;28;20518;-64
2021/05/09 12:08:39;;;;;;;2.47;1.20;;;29.10;30.70;;;28.48;51.55;99750.03;5003897;28;20514;-64
2021/05/09 12:11:50;;;;;;;1.63;1.40;;;29.40;31.20;;;28.10;50.37;99759.13;5004943;28;20290;-64
2021/05/09 12:15:02;;;;;;;2.25;1.40;;;29.60;31.30;;;27.79;51.70;99756.59;5004528;28;20397;-64
2021/05/09 12:18:29;;;;;;;1.55;1.25;;;29.70;30.30;;;27.87;51.79;99749.66;5005313;28;20233;-64
2021/05/09 12:21:40;;;;;;;1.27;1.17;;;29.80;30.00;;;27.73;51.22;99740.41;5000863;28;20557;-63
2021/05/09 12:25:10;;;;;;;1.33;1.20;;;29.90;30.10;;;27.67;53.44;99741.56;5004847;28;20635;-64
2021/05/09 12:28:44;;;;;;;1.10;1.00;;;30.00;30.40;;;28.31;52.95;99737.84;5003528;28;20236;-64
2021/05/09 12:31:55;;;;;;;3.05;1.30;;;29.80;30.90;;;28.26;52.72;99737.88;4980923;28;20533;-63
2021/05/09 12:35:28;;;;;;;1.75;1.23;;;29.70;31.20;;;27.91;52.17;99728.75;4999150;28;20715;-63
2021/05/09 12:38:41;;;;;;;3.72;1.40;;;29.70;30.70;;;27.89;53.00;99717.22;4991464;28;20577;-65
2021/05/09 12:42:09;;;;;;;2.53;1.40;;;29.70;30.90;;;28.33;55.11;99719.09;5003262;28;20222;-63
2021/05/09 12:45:54;;;;;;;2.20;1.20;;;29.80;30.80;;;28.40;52.77;99719.59;5004164;28;20704;-64
2021/05/09 12:49:06;;;;;;;1.50;1.40;;;29.90;31.20;;;28.54;58.93;99726.06;5003248;28;20645;-64
2021/05/09 12:52:32;;;;;;;2.58;1.58;;;29.90;31.10;;;27.46;56.66;99714.13;5003189;28;20513;-63
2021/05/09 12:55:49;;;;;;;2.05;1.48;;;29.80;30.30;;;28.39;57.90;99707.75;5016421;28;20558;-64
2021/05/09 12:59:28;;;;;;;1.58;1.48;;;29.60;31.20;;;28.02;59.26;99699.25;5004017;28;20620;-64
2021/05/09 13:02:40;;;;;;;1.30;1.13;;;29.60;31.30;;;28.52;55.24;99700.75;4936152;28;20228;-64
2021/05/09 13:05:52;;;;;;;3.40;1.40;;;29.60;31.20;;;28.17;53.41;99704.63;5006850;28;20253;-63
2021/05/09 13:09:03;;;;;;;1.83;1.70;;;29.60;31.30;;;28.98;52.46;99698.34;4988561;28;20369;-62
2021/05/09 13:12:16;;;;;;;2.30;1.35;;;29.60;31.70;;;28.95;50.67;99697.00;5007328;28;20256;-63
2021/05/09 13:15:46;;;;;;;2.42;1.50;;;29.80;31.50;;;28.42;51.30;99692.59;5004603;28;20226;-62
2021/05/09 13:18:58;;;;;;;2.17;1.50;;;29.90;31.00;;;28.81;52.23;99690.56;4994784;28;20489;-63
2021/05/09 13:22:10;;;;;;;2.53;1.45;;;29.90;30.60;;;29.26;52.00;99680.94;5006691;28;20353;-62
2021/05/09 13:29:16;;;;;;;1.65;1.30;;;30.30;31.70;;;28.82;55.18;99689.44;4946926;28;20234;-63
2021/05/09 13:32:28;;;;;;;1.38;1.27;;;30.30;30.70;;;28.94;54.13;99680.75;5005358;28;20226;-62
2021/05/09 13:35:39;;;;;;;2.72;1.60;;;30.30;31.20;;;28.96;54.74;99678.53;5006462;28;20804;-63
2021/05/09 13:38:50;;;;;;;2.35;1.58;;;30.40;31.30;;;28.15;59.67;99673.84;5006516;28;20551;-63
2021/05/09 13:42:13;;;;;;;1.90;1.42;;;30.30;30.80;;;29.34;56.66;99673.09;5000931;28;20922;-64
2021/05/09 13:45:25;;;;;;;2.88;1.25;;;30.10;31.70;;;29.59;53.16;99672.78;4986635;28;20515;-64
2021/05/09 13:48:38;;;;;;;1.48;1.20;;;30.10;31.50;;;29.03;54.58;99669.94;5002210;28;20778;-64
2021/05/09 13:51:49;;;;;;;3.58;1.55;;;30.20;31.00;;;29.15;54.86;99665.66;5004831;28;20553;-63
2021/05/09 13:55:00;;;;;;;2.80;1.95;;;30.20;31.10;;;29.58;56.47;99663.69;5005895;28;21068;-63
2021/05/09 13:58:11;;;;;;;2.28;1.42;;;30.30;31.50;;;29.28;53.08;99658.59;5019613;28;20227;-63
2021/05/09 14:01:23;;;;;;;2.88;1.83;;;30.40;31.50;;;29.09;53.56;99657.72;5002874;28;20591;-64
2021/05/09 14:04:36;;;;;;;2.92;1.80;;;30.40;31.00;;;28.74;56.91;99658.97;5004802;28;20637;-63
2021/05/09 14:07:55;;;;;;;2.67;1.60;;;30.40;31.30;;;28.81;58.85;99652.00;5006360;28;20736;-64
2021/05/09 14:11:07;;;;;;;3.13;1.80;;;30.20;31.70;;;28.19;62.21;99650.97;5007044;28;20245;-63
2021/05/09 14:14:18;;;;;;;3.33;1.60;;;29.80;31.80;;;29.12;59.77;99649.69;5001284;28;20219;-64
2021/05/09 14:21:02;;;;;;;4.43;2.03;;;29.30;32.60;;;28.33;62.33;99650.31;5004335;28;20229;-64
2021/05/09 14:24:27;;;;;;;2.30;1.83;;;29.20;33.20;;;28.45;64.18;99647.97;5006017;28;20403;-64
2021/05/09 14:27:38;;;;;;;9.05;2.00;;;29.10;33.70;;;28.85;62.34;99643.97;5005667;28;20596;-63
2021/05/09 14:30:50;;;;;;;4.50;2.10;;;29.00;33.80;;;28.60;63.97;99640.38;4983016;28;20231;-64
2021/05/09 14:34:01;;;;;;;2.40;2.03;;;29.10;33.70;;;28.67;63.35;99641.97;5020691;28;21002;-64
2021/05/09 14:37:13;;;;;;;3.13;1.95;;;29.00;34.00;;;29.16;59.79;99648.00;5001253;28;20225;-64
2021/05/09 14:40:25;;;;;;;7.38;2.30;;;29.10;34.20;;;29.15;60.46;99640.84;5005680;28;20663;-64
2021/05/09 14:43:36;;;;;;;3.17;1.95;;;29.20;34.20;;;28.76;63.18;99632.78;5001294;28;20406;-63
2021/05/09 14:46:48;;;;;;;2.22;1.92;;;29.10;34.10;;;28.12;63.42;99633.16;5006278;28;20343;-64
2021/05/09 14:49:59;;;;;;;2.25;1.60;;;29.00;33.90;;;28.23;67.40;99635.53;4987665;28;20230;-63
2021/05/09 15:00:28;;;;;;;3.30;2.00;;;28.30;34.90;;;28.59;67.89;99622.22;4940832;28;20455;-63
2021/05/09 15:03:39;;;;;;;2.75;2.00;;;28.20;35.60;;;28.91;65.32;99629.88;5004320;28;20308;-63